Millertown, Canada
Current Conditions -  °F | °C
As of 8:00 AM on Friday 24 Oct 2014 (Local Time) from CYDF Reporting Station
Scattered Clouds Scattered Clouds  
Wind Chill: 27°   Ceiling: Unl
Heat Index: 27°   Visibility: 15mi
Dew Point: 27°   Wind: 3mph
Humidity: 100%   Direction: 120°ESE
Pressure: 30.04"   Gusts: NA
Location:  48.82°N, 56.53°W
Report Text: CYDF 241000Z 12003KT 15SM FEW002 SCT200 M03/M03 A3004 RMK ST1CI3 SLP173
Loading
Personal Weather Stations






























Interactive Weather Map
Tropical Storm Tracking
New forecast layout! Learn more

10-Day Weather Forecast

Advertisements
Track Severe Weather on mobile